createdAt,value
2022-10-07T00:00:21.024Z,9.83
2022-10-07T00:01:21.071Z,9.86
2022-10-07T00:02:21.044Z,9.78
2022-10-07T00:03:20.945Z,9.83
2022-10-07T00:04:20.926Z,9.87
2022-10-07T00:05:20.898Z,9.84
2022-10-07T00:06:20.874Z,9.83
2022-10-07T00:07:20.886Z,9.91
2022-10-07T00:08:20.846Z,9.90
2022-10-07T00:09:20.808Z,9.90
2022-10-07T00:10:20.782Z,9.87
2022-10-07T00:11:20.756Z,9.91
2022-10-07T00:12:20.731Z,9.94
2022-10-07T00:13:20.708Z,9.93
2022-10-07T00:14:20.682Z,9.90
2022-10-07T00:15:20.658Z,9.96
2022-10-07T00:16:20.724Z,10.02
2022-10-07T00:17:20.612Z,10.08
2022-10-07T00:18:20.581Z,9.97
2022-10-07T00:19:20.558Z,10.02
2022-10-07T00:20:20.543Z,10.11
2022-10-07T00:21:20.514Z,10.07
2022-10-07T00:22:20.494Z,10.07
2022-10-07T00:23:20.464Z,10.08
2022-10-07T00:24:20.466Z,10.11
2022-10-07T00:25:20.419Z,10.05
2022-10-07T00:26:20.393Z,10.07
2022-10-07T00:27:20.373Z,10.04
2022-10-07T00:28:20.405Z,10.07
2022-10-07T00:29:20.326Z,10.12
2022-10-07T00:30:20.296Z,10.07
2022-10-07T00:31:20.341Z,10.05
2022-10-07T00:32:20.253Z,10.05
2022-10-07T00:33:20.230Z,10.12
2022-10-07T00:34:20.205Z,10.07
2022-10-07T00:35:20.176Z,10.05
2022-10-07T00:36:20.151Z,10.15
2022-10-07T00:37:20.133Z,10.08
2022-10-07T00:38:20.114Z,10.08
2022-10-07T00:39:20.083Z,10.05
2022-10-07T00:40:20.081Z,10.01
2022-10-07T00:41:20.034Z,10.05
2022-10-07T00:42:20.012Z,9.91
2022-10-07T00:43:19.989Z,9.97
2022-10-07T00:44:19.962Z,10.01
2022-10-07T00:45:19.941Z,9.91
2022-10-07T00:46:19.999Z,10.01
2022-10-07T00:47:19.895Z,9.87
2022-10-07T00:48:19.870Z,9.79
2022-10-07T00:49:19.846Z,9.81
2022-10-07T00:50:19.824Z,9.64
2022-10-07T00:51:19.799Z,9.61
2022-10-07T00:52:19.771Z,9.43
2022-10-07T00:53:19.750Z,9.33
2022-10-07T00:54:19.727Z,9.23
2022-10-07T00:55:19.699Z,9.31
2022-10-07T00:56:19.697Z,9.23
2022-10-07T00:57:19.654Z,9.26
2022-10-07T00:58:19.628Z,9.23
2022-10-07T00:59:19.606Z,9.33
2022-10-07T01:00:19.582Z,9.32
2022-10-07T01:01:19.596Z,9.32
2022-10-07T01:02:19.651Z,9.32
2022-10-07T01:03:19.507Z,9.40
2022-10-07T01:04:19.482Z,9.39
2022-10-07T01:05:19.455Z,9.31
2022-10-07T01:06:19.436Z,9.35
2022-10-07T01:07:19.411Z,9.40
2022-10-07T01:08:19.389Z,9.47
2022-10-07T01:09:19.366Z,9.48
2022-10-07T01:10:19.335Z,9.51
2022-10-07T01:11:19.313Z,9.53
2022-10-07T01:12:19.309Z,9.57
2022-10-07T01:13:19.267Z,9.61
2022-10-07T01:14:19.237Z,9.58
2022-10-07T01:15:19.217Z,9.47
2022-10-07T01:16:19.269Z,9.33
2022-10-07T01:17:19.173Z,9.20
2022-10-07T01:18:19.146Z,9.02
2022-10-07T01:19:19.124Z,8.94
2022-10-07T01:20:19.098Z,8.81
2022-10-07T01:21:19.068Z,8.73
2022-10-07T01:22:19.045Z,8.80
2022-10-07T01:23:19.022Z,8.81
2022-10-07T01:24:18.998Z,8.77
2022-10-07T01:25:18.973Z,8.81
2022-10-07T01:26:18.951Z,8.89
2022-10-07T01:27:18.932Z,8.96
2022-10-07T01:28:18.984Z,8.96
2022-10-07T01:29:18.878Z,8.96
2022-10-07T01:30:18.855Z,8.98
2022-10-07T01:31:18.877Z,9.05
2022-10-07T01:32:18.805Z,9.18
2022-10-07T01:33:18.781Z,9.04
2022-10-07T01:34:18.767Z,9.20
2022-10-07T01:35:18.734Z,9.21
2022-10-07T01:36:18.708Z,9.26
2022-10-07T01:37:18.685Z,9.17
2022-10-07T01:38:18.663Z,9.21
2022-10-07T01:39:18.635Z,9.26
2022-10-07T01:40:18.611Z,9.23
2022-10-07T01:41:18.589Z,9.26
2022-10-07T01:42:18.562Z,9.26
2022-10-07T01:43:18.536Z,9.11
2022-10-07T01:44:18.535Z,8.99
2022-10-07T01:45:18.491Z,8.86
2022-10-07T01:46:18.607Z,8.89
2022-10-07T01:47:18.441Z,8.87
2022-10-07T01:48:18.417Z,8.81
2022-10-07T01:49:18.395Z,8.76
2022-10-07T01:50:18.371Z,8.86
2022-10-07T01:51:18.343Z,8.87
2022-10-07T01:52:18.323Z,8.79
2022-10-07T01:53:18.296Z,8.89
2022-10-07T01:54:18.271Z,8.94
2022-10-07T01:55:18.247Z,8.95
2022-10-07T01:56:18.225Z,8.95
2022-10-07T01:57:18.202Z,9.08
2022-10-07T01:58:18.178Z,9.01
2022-10-07T01:59:18.152Z,9.05
2022-10-07T02:00:18.145Z,8.99
2022-10-07T02:01:18.218Z,9.02
2022-10-07T02:02:18.075Z,8.98
2022-10-07T02:03:18.217Z,9.11
2022-10-07T02:04:18.029Z,9.05
2022-10-07T02:05:18.002Z,9.11
2022-10-07T02:06:17.979Z,9.10
2022-10-07T02:07:17.963Z,9.13
2022-10-07T02:08:17.941Z,9.13
2022-10-07T02:09:17.907Z,9.14
2022-10-07T02:10:17.878Z,9.18
2022-10-07T02:11:17.864Z,9.20
2022-10-07T02:12:17.832Z,9.11
2022-10-07T02:13:17.806Z,9.11
2022-10-07T02:14:17.785Z,9.23
2022-10-07T02:15:17.757Z,9.23
2022-10-07T02:16:17.882Z,9.18
2022-10-07T02:17:17.710Z,9.08
2022-10-07T02:18:17.686Z,9.08
2022-10-07T02:19:17.666Z,8.87
2022-10-07T02:20:17.633Z,8.79
2022-10-07T02:21:17.612Z,8.65
2022-10-07T02:22:17.586Z,8.58
2022-10-07T02:23:17.560Z,8.61
2022-10-07T02:24:17.541Z,8.44
2022-10-07T02:25:17.518Z,8.48
2022-10-07T02:26:17.488Z,8.53
2022-10-07T02:27:17.469Z,8.56
2022-10-07T02:28:17.471Z,8.55
2022-10-07T02:29:17.420Z,8.56
2022-10-07T02:30:17.396Z,8.62
2022-10-07T02:31:17.407Z,8.62
2022-10-07T02:32:17.369Z,8.65
2022-10-07T02:33:17.317Z,8.62
2022-10-07T02:34:19.918Z,8.68
2022-10-07T02:35:17.273Z,8.70
2022-10-07T02:36:17.246Z,8.56
2022-10-07T02:37:17.226Z,8.59
2022-10-07T02:38:17.199Z,8.44
2022-10-07T02:39:17.172Z,8.37
2022-10-07T02:40:17.148Z,8.19
2022-10-07T02:41:17.126Z,8.18
2022-10-07T02:42:17.102Z,8.20
2022-10-07T02:43:17.074Z,8.19
2022-10-07T02:44:17.054Z,8.19
2022-10-07T02:45:17.027Z,8.29
2022-10-07T02:46:17.108Z,8.34
2022-10-07T02:47:16.975Z,8.37
2022-10-07T02:48:16.971Z,8.38
2022-10-07T02:49:16.935Z,8.52
2022-10-07T02:50:16.902Z,8.52
2022-10-07T02:51:20.800Z,8.56
2022-10-07T02:52:16.854Z,8.53
2022-10-07T02:53:16.827Z,8.58
2022-10-07T02:54:16.806Z,8.65
2022-10-07T02:55:16.781Z,8.61
2022-10-07T02:56:16.757Z,8.66
2022-10-07T02:57:16.730Z,8.71
2022-10-07T02:58:16.706Z,8.65
2022-10-07T02:59:16.682Z,8.74
2022-10-07T03:00:16.654Z,8.81
2022-10-07T03:01:16.741Z,8.73
2022-10-07T03:02:16.607Z,8.80
2022-10-07T03:03:16.638Z,8.80
2022-10-07T03:04:16.645Z,8.83
2022-10-07T03:05:16.555Z,8.91
2022-10-07T03:06:16.513Z,8.95
2022-10-07T03:07:16.491Z,8.89
2022-10-07T03:08:16.459Z,8.95
2022-10-07T03:09:16.434Z,8.94
2022-10-07T03:10:16.410Z,9.01
2022-10-07T03:11:16.388Z,9.02
2022-10-07T03:12:16.361Z,9.08
2022-10-07T03:13:16.339Z,9.10
2022-10-07T03:14:16.312Z,9.11
2022-10-07T03:15:16.287Z,9.18
2022-10-07T03:16:16.323Z,9.14
2022-10-07T03:17:16.242Z,9.17
2022-10-07T03:18:16.217Z,9.11
2022-10-07T03:19:16.190Z,9.15
2022-10-07T03:20:16.181Z,9.23
2022-10-07T03:21:16.159Z,9.10
2022-10-07T03:22:16.113Z,9.20
2022-10-07T03:23:16.094Z,9.15
2022-10-07T03:24:16.070Z,9.11
2022-10-07T03:25:16.040Z,9.05
2022-10-07T03:26:16.021Z,8.92
2022-10-07T03:27:15.997Z,8.86
2022-10-07T03:28:16.051Z,8.65
2022-10-07T03:29:15.947Z,8.63
2022-10-07T03:30:15.920Z,8.50
2022-10-07T03:31:15.987Z,8.50
2022-10-07T03:32:15.869Z,8.50
2022-10-07T03:33:15.850Z,8.52
2022-10-07T03:34:15.821Z,8.62
2022-10-07T03:35:15.800Z,8.56
2022-10-07T03:36:15.790Z,8.66
2022-10-07T03:37:15.746Z,8.68
2022-10-07T03:38:15.725Z,8.76
2022-10-07T03:39:15.703Z,8.84
2022-10-07T03:40:15.680Z,8.86
2022-10-07T03:41:15.651Z,8.99
2022-10-07T03:42:15.627Z,8.92
2022-10-07T03:43:15.602Z,9.08
2022-10-07T03:44:15.579Z,9.01
2022-10-07T03:45:15.572Z,9.01
2022-10-07T03:46:15.605Z,9.10
2022-10-07T03:47:15.510Z,9.17
2022-10-07T03:48:15.483Z,9.08
2022-10-07T03:49:15.458Z,9.13
2022-10-07T03:50:15.428Z,9.08
2022-10-07T03:51:15.410Z,9.15
2022-10-07T03:52:15.397Z,9.13
2022-10-07T03:53:15.361Z,9.10
2022-10-07T03:54:15.329Z,9.13
2022-10-07T03:55:15.308Z,9.14
2022-10-07T03:56:15.285Z,9.14
2022-10-07T03:57:15.258Z,9.13
2022-10-07T03:58:15.233Z,9.15
2022-10-07T03:59:15.212Z,9.14
2022-10-07T04:00:15.187Z,9.15
2022-10-07T04:01:15.244Z,9.14
2022-10-07T04:02:15.139Z,9.10
2022-10-07T04:03:15.216Z,9.08
2022-10-07T04:04:15.089Z,9.02
2022-10-07T04:05:15.066Z,9.05
2022-10-07T04:06:15.040Z,9.05
2022-10-07T04:07:15.015Z,8.96
2022-10-07T04:08:15.008Z,9.01
2022-10-07T04:09:14.968Z,8.99
2022-10-07T04:10:14.938Z,9.10
2022-10-07T04:11:14.921Z,9.11
2022-10-07T04:12:14.891Z,9.13
2022-10-07T04:13:14.873Z,9.11
2022-10-07T04:14:14.840Z,9.20
2022-10-07T04:15:14.818Z,9.17
2022-10-07T04:16:14.828Z,9.18
2022-10-07T04:17:14.771Z,9.13
2022-10-07T04:18:14.744Z,9.18
2022-10-07T04:19:14.720Z,9.18
2022-10-07T04:20:14.694Z,9.24
2022-10-07T04:21:14.672Z,9.20
2022-10-07T04:22:14.647Z,9.24
2022-10-07T04:23:14.621Z,9.20
2022-10-07T04:24:14.617Z,9.21
2022-10-07T04:25:14.571Z,9.21
2022-10-07T04:26:14.548Z,9.24
2022-10-07T04:27:33.808Z,9.18
2022-10-07T04:28:14.543Z,9.26
2022-10-07T04:29:14.477Z,9.35
2022-10-07T04:30:14.455Z,9.32
2022-10-07T04:31:14.504Z,9.21
2022-10-07T04:32:14.403Z,9.24
2022-10-07T04:33:14.379Z,9.28
2022-10-07T04:34:14.357Z,9.32
2022-10-07T04:35:14.329Z,9.28
2022-10-07T04:36:14.303Z,9.23
2022-10-07T04:37:14.283Z,9.31
2022-10-07T04:38:14.254Z,9.20
2022-10-07T04:39:14.234Z,9.20
2022-10-07T04:40:14.228Z,9.29
2022-10-07T04:41:14.188Z,9.21
2022-10-07T04:42:14.155Z,9.17
2022-10-07T04:43:14.132Z,9.23
2022-10-07T04:44:14.105Z,9.17
2022-10-07T04:45:14.086Z,9.24
2022-10-07T04:46:14.203Z,9.24
2022-10-07T04:47:14.078Z,9.23
2022-10-07T04:48:14.006Z,9.21
2022-10-07T04:49:13.987Z,9.23
2022-10-07T04:50:13.969Z,9.14
2022-10-07T04:51:13.936Z,9.08
2022-10-07T04:52:13.908Z,9.14
2022-10-07T04:53:13.884Z,9.11
2022-10-07T04:54:13.857Z,9.20
2022-10-07T04:55:13.837Z,9.14
2022-10-07T04:56:13.907Z,9.11
2022-10-07T04:57:13.788Z,9.11
2022-10-07T04:58:13.765Z,9.08
2022-10-07T04:59:13.743Z,9.13
2022-10-07T05:00:13.716Z,9.20
2022-10-07T05:01:13.778Z,9.08
2022-10-07T05:02:13.804Z,9.18
2022-10-07T05:03:13.643Z,9.20
2022-10-07T05:04:13.619Z,9.23
2022-10-07T05:05:13.596Z,9.21
2022-10-07T05:06:13.568Z,9.24
2022-10-07T05:07:13.543Z,9.24
2022-10-07T05:08:13.520Z,9.24
2022-10-07T05:09:13.492Z,9.15
2022-10-07T05:10:13.475Z,9.28
2022-10-07T05:11:13.448Z,9.24
2022-10-07T05:12:13.549Z,9.26
2022-10-07T05:13:13.398Z,9.24
2022-10-07T05:14:13.370Z,9.18
2022-10-07T05:15:13.344Z,9.24
2022-10-07T05:16:13.387Z,9.28
2022-10-07T05:17:13.300Z,9.31
2022-10-07T05:18:13.273Z,9.28
2022-10-07T05:19:13.250Z,9.26
2022-10-07T05:20:13.226Z,9.23
2022-10-07T05:21:13.201Z,9.24
2022-10-07T05:22:13.181Z,9.21
2022-10-07T05:23:13.151Z,9.20
2022-10-07T05:24:13.131Z,9.14
2022-10-07T05:25:13.107Z,9.11
2022-10-07T05:26:13.074Z,9.14
2022-10-07T05:27:13.053Z,9.17
2022-10-07T05:28:13.083Z,9.11
2022-10-07T05:29:13.006Z,9.15
2022-10-07T05:30:12.979Z,9.23
2022-10-07T05:31:13.013Z,9.11
2022-10-07T05:32:12.928Z,9.18
2022-10-07T05:33:12.910Z,9.15
2022-10-07T05:34:12.882Z,9.17
2022-10-07T05:35:12.854Z,9.14
2022-10-07T05:36:12.832Z,9.10
2022-10-07T05:37:12.808Z,9.20
2022-10-07T05:38:12.784Z,9.11
2022-10-07T05:39:12.762Z,9.04
2022-10-07T05:40:12.729Z,9.11
2022-10-07T05:41:12.706Z,9.15
2022-10-07T05:42:12.683Z,9.18
2022-10-07T05:43:12.660Z,9.10
2022-10-07T05:44:12.659Z,9.13
2022-10-07T05:45:12.610Z,9.14
2022-10-07T05:46:12.685Z,9.10
2022-10-07T05:47:12.561Z,9.20
2022-10-07T05:48:12.534Z,9.23
2022-10-07T05:49:12.523Z,9.17
2022-10-07T05:50:12.503Z,9.20
2022-10-07T05:51:12.461Z,9.15
2022-10-07T05:52:12.438Z,9.14
2022-10-07T05:53:12.417Z,9.11
2022-10-07T05:54:12.387Z,9.23
2022-10-07T05:55:12.369Z,9.18
2022-10-07T05:56:12.339Z,9.10
2022-10-07T05:57:12.317Z,9.18
2022-10-07T05:58:12.289Z,9.20
2022-10-07T05:59:12.267Z,9.20
2022-10-07T06:00:12.266Z,9.05
2022-10-07T06:01:14.215Z,9.14
2022-10-07T06:02:12.350Z,9.20
2022-10-07T06:03:12.329Z,9.04
2022-10-07T06:04:12.148Z,9.14
2022-10-07T06:05:12.122Z,9.05
2022-10-07T06:06:12.094Z,9.13
2022-10-07T06:07:12.070Z,9.13
2022-10-07T06:08:12.049Z,9.10
2022-10-07T06:09:12.025Z,9.13
2022-10-07T06:10:11.995Z,9.04
2022-10-07T06:11:11.973Z,9.14
2022-10-07T06:12:11.950Z,9.20
2022-10-07T06:13:11.926Z,9.21
2022-10-07T06:14:11.903Z,9.18
2022-10-07T06:15:11.872Z,9.21
2022-10-07T06:16:11.972Z,9.28
2022-10-07T06:17:11.826Z,9.23
2022-10-07T06:18:11.809Z,9.35
2022-10-07T06:19:11.776Z,9.35
2022-10-07T06:20:11.750Z,9.32
2022-10-07T06:21:11.726Z,9.42
2022-10-07T06:22:11.700Z,9.31
2022-10-07T06:23:11.677Z,9.42
2022-10-07T06:24:11.654Z,9.39
2022-10-07T06:25:11.626Z,9.46
2022-10-07T06:26:11.612Z,9.46
2022-10-07T06:27:11.581Z,9.47
2022-10-07T06:28:11.660Z,9.46
2022-10-07T06:29:11.537Z,9.47
2022-10-07T06:30:11.506Z,9.43
2022-10-07T06:31:11.588Z,9.54
2022-10-07T06:32:11.477Z,9.56
2022-10-07T06:33:11.432Z,9.51
2022-10-07T06:34:11.420Z,9.54
2022-10-07T06:35:11.382Z,9.58
2022-10-07T06:36:11.362Z,9.56
2022-10-07T06:37:11.333Z,9.58
2022-10-07T06:38:11.309Z,9.60
2022-10-07T06:39:11.287Z,9.57
2022-10-07T06:40:11.262Z,9.58
2022-10-07T06:41:11.235Z,9.64
2022-10-07T06:42:11.210Z,9.56
2022-10-07T06:43:11.190Z,9.65
2022-10-07T06:44:11.170Z,9.69
2022-10-07T06:45:11.142Z,9.68
2022-10-07T06:46:11.160Z,9.76
2022-10-07T06:47:12.091Z,9.69
2022-10-07T06:48:11.089Z,9.65
2022-10-07T06:49:11.038Z,9.79
2022-10-07T06:50:11.015Z,9.76
2022-10-07T06:51:10.993Z,9.76
2022-10-07T06:52:10.969Z,9.83
2022-10-07T06:53:10.943Z,9.81
2022-10-07T06:54:10.919Z,9.86
2022-10-07T06:55:10.897Z,9.81
2022-10-07T06:56:10.872Z,9.81
2022-10-07T06:57:33.107Z,9.91
2022-10-07T06:58:11.988Z,9.83
2022-10-07T06:59:10.801Z,9.91
2022-10-07T07:00:10.779Z,9.96
2022-10-07T07:01:10.875Z,10.02
2022-10-07T07:02:10.797Z,10.01
2022-10-07T07:03:10.700Z,10.05
2022-10-07T07:04:10.696Z,10.11
2022-10-07T07:05:10.652Z,10.05
2022-10-07T07:06:10.627Z,10.04
2022-10-07T07:07:10.611Z,10.07
2022-10-07T07:08:10.582Z,10.04
2022-10-07T07:09:10.557Z,10.11
2022-10-07T07:10:10.531Z,10.18
2022-10-07T07:11:10.503Z,10.17
2022-10-07T07:12:10.481Z,10.15
2022-10-07T07:13:10.452Z,10.25
2022-10-07T07:14:10.434Z,10.25
2022-10-07T07:15:10.408Z,10.27
2022-10-07T07:16:10.381Z,10.30
2022-10-07T07:17:10.461Z,10.38
2022-10-07T07:18:10.340Z,10.42
2022-10-07T07:19:10.359Z,10.41
2022-10-07T07:20:10.308Z,10.40
2022-10-07T07:21:10.263Z,10.40
2022-10-07T07:22:10.238Z,10.41
2022-10-07T07:23:10.213Z,10.44
2022-10-07T07:24:10.186Z,10.51
2022-10-07T07:25:10.181Z,10.45
2022-10-07T07:26:10.137Z,10.52
2022-10-07T07:27:10.117Z,10.55
2022-10-07T07:28:10.170Z,10.67
2022-10-07T07:29:10.068Z,10.67
2022-10-07T07:30:10.042Z,10.70
2022-10-07T07:31:10.145Z,10.67
2022-10-07T07:32:10.013Z,10.70
2022-10-07T07:33:09.977Z,10.71
2022-10-07T07:34:09.948Z,10.81
2022-10-07T07:35:09.921Z,10.81
2022-10-07T07:36:09.921Z,10.96
2022-10-07T07:37:09.877Z,10.97
2022-10-07T07:38:09.852Z,11.03
2022-10-07T07:39:09.847Z,11.00
2022-10-07T07:40:09.806Z,11.07
2022-10-07T07:41:09.777Z,11.10
2022-10-07T07:42:09.754Z,11.10
2022-10-07T07:43:09.727Z,11.17
2022-10-07T07:44:09.705Z,11.19
2022-10-07T07:45:09.679Z,11.27
2022-10-07T07:46:09.713Z,11.21
2022-10-07T07:47:09.635Z,11.25
2022-10-07T07:48:09.614Z,11.27
2022-10-07T07:49:09.590Z,11.32
2022-10-07T07:50:09.564Z,11.36
2022-10-07T07:51:09.536Z,11.37
2022-10-07T07:52:09.535Z,11.42
2022-10-07T07:53:09.492Z,11.40
2022-10-07T07:54:09.468Z,11.43
2022-10-07T07:55:09.441Z,11.43
2022-10-07T07:56:09.422Z,11.47
2022-10-07T07:57:09.398Z,11.46
2022-10-07T07:58:11.749Z,11.57
2022-10-07T07:59:09.348Z,11.55
2022-10-07T08:00:09.326Z,11.60
2022-10-07T08:01:09.347Z,11.57
2022-10-07T08:02:09.350Z,11.55
2022-10-07T08:03:09.249Z,11.70
2022-10-07T08:04:09.231Z,11.73
2022-10-07T08:05:09.207Z,11.79
2022-10-07T08:06:09.178Z,11.82
2022-10-07T08:07:09.155Z,11.76
2022-10-07T08:08:09.151Z,11.83
2022-10-07T08:09:09.109Z,11.88
2022-10-07T08:10:09.085Z,12.04
2022-10-07T08:11:09.067Z,11.99
2022-10-07T08:12:09.034Z,12.01
2022-10-07T08:13:09.012Z,12.07
2022-10-07T08:14:08.989Z,12.07
2022-10-07T08:15:08.961Z,12.02
2022-10-07T08:16:08.987Z,12.05
2022-10-07T08:17:08.919Z,12.14
2022-10-07T08:18:08.897Z,12.10
2022-10-07T08:19:08.874Z,12.21
2022-10-07T08:20:08.849Z,12.13
2022-10-07T08:21:08.826Z,12.16
2022-10-07T08:22:08.806Z,12.24
2022-10-07T08:23:08.778Z,12.20
2022-10-07T08:24:08.777Z,12.35
2022-10-07T08:25:08.728Z,12.34
2022-10-07T08:26:08.704Z,12.34
2022-10-07T08:27:08.682Z,12.38
2022-10-07T08:28:08.706Z,12.42
2022-10-07T08:29:08.638Z,12.50
2022-10-07T08:30:08.615Z,12.56
2022-10-07T08:31:08.595Z,12.52
2022-10-07T08:32:08.562Z,12.57
2022-10-07T08:33:08.568Z,12.64
2022-10-07T08:34:08.518Z,12.70
2022-10-07T08:35:08.489Z,12.68
2022-10-07T08:36:08.468Z,12.67
2022-10-07T08:37:08.444Z,12.83
2022-10-07T08:38:12.463Z,12.85
2022-10-07T08:39:08.405Z,12.82
2022-10-07T08:40:08.396Z,12.82
2022-10-07T08:41:08.351Z,12.86
2022-10-07T08:42:08.332Z,12.90
2022-10-07T08:43:08.303Z,12.90
2022-10-07T08:44:08.435Z,12.97
2022-10-07T08:45:08.268Z,13.03
2022-10-07T08:46:08.281Z,13.08
2022-10-07T08:47:08.212Z,13.14
2022-10-07T08:48:08.185Z,13.14
2022-10-07T08:49:08.166Z,13.22
2022-10-07T08:50:08.148Z,13.20
2022-10-07T08:51:08.115Z,13.17
2022-10-07T08:52:08.102Z,13.23
2022-10-07T08:53:08.069Z,13.33
2022-10-07T08:54:08.046Z,13.41
2022-10-07T08:55:08.020Z,13.39
2022-10-07T08:56:08.025Z,13.42
2022-10-07T08:57:07.974Z,13.42
2022-10-07T08:58:07.952Z,13.48
2022-10-07T08:59:07.926Z,13.55
2022-10-07T09:00:07.901Z,13.64
2022-10-07T09:01:07.937Z,13.54
2022-10-07T09:02:07.863Z,13.66
2022-10-07T09:03:07.840Z,13.67
2022-10-07T09:04:07.817Z,13.67
2022-10-07T09:05:07.791Z,13.77
2022-10-07T09:06:07.769Z,13.73
2022-10-07T09:07:07.748Z,13.77
2022-10-07T09:08:07.723Z,13.79
2022-10-07T09:09:07.697Z,13.82
2022-10-07T09:10:07.671Z,13.66
2022-10-07T09:11:08.069Z,13.81
2022-10-07T09:12:07.649Z,13.84
2022-10-07T09:13:07.635Z,13.88
2022-10-07T09:14:07.580Z,13.99
2022-10-07T09:15:07.558Z,13.91
2022-10-07T09:16:07.658Z,13.99
2022-10-07T09:17:07.509Z,14.00
2022-10-07T09:18:07.492Z,13.99
2022-10-07T09:19:07.467Z,14.07
2022-10-07T09:20:07.446Z,14.18
2022-10-07T09:21:07.419Z,14.20
2022-10-07T09:22:07.414Z,14.14
2022-10-07T09:23:07.373Z,14.17
2022-10-07T09:24:07.346Z,14.24
2022-10-07T09:25:10.534Z,14.27
2022-10-07T09:26:07.300Z,14.39
2022-10-07T09:27:07.279Z,14.45
2022-10-07T09:28:07.320Z,14.43
2022-10-07T09:29:07.283Z,14.57
2022-10-07T09:30:07.214Z,14.51
2022-10-07T09:31:07.300Z,14.57
2022-10-07T09:32:07.171Z,14.62
2022-10-07T09:33:07.141Z,14.62
2022-10-07T09:34:07.119Z,14.60
2022-10-07T09:35:07.108Z,14.70
2022-10-07T09:36:07.086Z,14.73
2022-10-07T09:37:07.049Z,14.68
2022-10-07T09:38:07.033Z,14.69
2022-10-07T09:39:07.000Z,14.75
2022-10-07T09:40:06.981Z,14.81
2022-10-07T09:41:06.971Z,14.88
2022-10-07T09:42:06.938Z,14.92
2022-10-07T09:43:06.910Z,14.95
2022-10-07T09:44:06.912Z,14.96
2022-10-07T09:45:06.869Z,14.99
2022-10-07T09:46:06.880Z,15.02
2022-10-07T09:47:06.818Z,15.13
2022-10-07T09:48:06.802Z,15.16
2022-10-07T09:49:06.772Z,15.16
2022-10-07T09:50:06.757Z,15.09
2022-10-07T09:51:06.730Z,15.21
2022-10-07T09:52:06.711Z,15.23
2022-10-07T09:53:06.682Z,15.31
2022-10-07T09:54:06.661Z,15.31
2022-10-07T09:55:06.638Z,15.36
2022-10-07T09:56:06.619Z,15.38
2022-10-07T09:57:06.593Z,15.35
2022-10-07T09:58:06.578Z,15.39
2022-10-07T09:59:06.550Z,15.44
2022-10-07T10:00:06.546Z,15.46
2022-10-07T10:01:06.509Z,15.36
2022-10-07T10:02:06.576Z,15.53
2022-10-07T10:03:06.684Z,15.46
2022-10-07T10:04:06.435Z,15.54
2022-10-07T10:05:06.417Z,15.56
2022-10-07T10:06:06.397Z,15.69
2022-10-07T10:07:06.368Z,15.68
2022-10-07T10:08:06.365Z,15.71
2022-10-07T10:09:06.325Z,15.76
2022-10-07T10:10:06.303Z,15.72
2022-10-07T10:11:06.283Z,15.75
2022-10-07T10:12:06.259Z,15.78
2022-10-07T10:13:06.233Z,15.89
2022-10-07T10:14:06.212Z,15.87
2022-10-07T10:15:06.194Z,15.90
2022-10-07T10:16:06.275Z,15.80
2022-10-07T10:17:06.147Z,15.93
2022-10-07T10:18:06.123Z,15.97
2022-10-07T10:19:06.104Z,15.97
2022-10-07T10:20:06.086Z,16.01
2022-10-07T10:21:06.062Z,16.04
2022-10-07T10:22:06.036Z,16.09
2022-10-07T10:23:06.020Z,16.12
2022-10-07T10:24:06.022Z,16.14
2022-10-07T10:25:05.974Z,16.04
2022-10-07T10:26:05.952Z,16.05
2022-10-07T10:27:05.925Z,16.15
2022-10-07T10:28:05.942Z,16.12
2022-10-07T10:29:05.882Z,16.08
2022-10-07T10:30:05.861Z,16.12
2022-10-07T10:31:05.874Z,16.23
2022-10-07T10:32:05.833Z,16.28
2022-10-07T10:33:05.799Z,16.25
2022-10-07T10:34:05.770Z,16.38
2022-10-07T10:35:05.745Z,16.39
2022-10-07T10:36:05.726Z,16.35
2022-10-07T10:37:05.701Z,16.34
2022-10-07T10:38:05.678Z,16.35
2022-10-07T10:39:05.653Z,16.41
2022-10-07T10:40:05.634Z,16.43
2022-10-07T10:41:05.615Z,16.48
2022-10-07T10:42:05.589Z,16.46
2022-10-07T10:43:05.569Z,16.49
2022-10-07T10:44:05.543Z,16.50
2022-10-07T10:45:05.521Z,16.48
2022-10-07T10:46:05.580Z,16.46
2022-10-07T10:47:05.571Z,16.45
2022-10-07T10:48:05.484Z,16.48
2022-10-07T10:49:05.437Z,16.57
2022-10-07T10:50:05.418Z,16.56
2022-10-07T10:51:05.402Z,16.53
2022-10-07T10:52:08.631Z,16.50
2022-10-07T10:53:05.349Z,16.61
2022-10-07T10:54:05.332Z,16.58
2022-10-07T10:55:05.311Z,16.67
2022-10-07T10:56:05.280Z,16.68
2022-10-07T10:57:05.262Z,16.78
2022-10-07T10:58:05.237Z,16.79
2022-10-07T10:59:05.222Z,16.82
2022-10-07T11:00:05.197Z,16.89
2022-10-07T11:01:05.180Z,16.94
2022-10-07T11:02:05.209Z,16.93
2022-10-07T11:03:05.213Z,16.88
2022-10-07T11:04:05.126Z,16.97
2022-10-07T11:05:05.085Z,17.01
2022-10-07T11:06:05.064Z,17.01
2022-10-07T11:07:05.042Z,17.08
2022-10-07T11:08:05.017Z,17.07
2022-10-07T11:09:05.004Z,17.14
2022-10-07T11:10:04.977Z,17.06
2022-10-07T11:11:04.954Z,16.98
2022-10-07T11:12:04.929Z,17.03
2022-10-07T11:13:04.909Z,17.00
2022-10-07T11:14:04.888Z,17.08
2022-10-07T11:15:04.868Z,17.16
2022-10-07T11:16:04.909Z,17.18
2022-10-07T11:17:04.823Z,17.16
2022-10-07T11:18:04.803Z,17.11
2022-10-07T11:19:04.782Z,17.16
2022-10-07T11:20:04.778Z,17.12
2022-10-07T11:21:04.738Z,17.18
2022-10-07T11:22:05.533Z,17.06
2022-10-07T11:23:04.693Z,17.18
2022-10-07T11:24:04.674Z,17.21
2022-10-07T11:25:04.706Z,17.22
2022-10-07T11:26:04.630Z,17.19
2022-10-07T11:27:04.634Z,17.25
2022-10-07T11:28:04.639Z,17.36
2022-10-07T11:29:04.568Z,17.37
2022-10-07T11:30:04.542Z,17.36
2022-10-07T11:31:04.592Z,17.22
2022-10-07T11:32:04.499Z,17.37
2022-10-07T11:33:04.483Z,17.31
2022-10-07T11:34:04.457Z,17.37
2022-10-07T11:35:04.434Z,17.31
2022-10-07T11:36:04.432Z,17.38
2022-10-07T11:37:04.397Z,17.48
2022-10-07T11:38:04.371Z,17.46
2022-10-07T11:39:04.351Z,17.36
2022-10-07T11:40:04.389Z,17.25
2022-10-07T11:41:04.312Z,17.34
2022-10-07T11:42:04.283Z,17.38
2022-10-07T11:43:04.263Z,17.21
2022-10-07T11:44:04.242Z,17.23
2022-10-07T11:45:04.217Z,17.18
2022-10-07T11:46:07.919Z,17.26
2022-10-07T11:47:04.255Z,17.18
2022-10-07T11:48:04.155Z,17.26
2022-10-07T11:49:04.140Z,17.34
2022-10-07T11:50:04.111Z,17.28
2022-10-07T11:51:04.088Z,17.34
2022-10-07T11:52:04.096Z,17.38
2022-10-07T11:53:04.054Z,17.37
2022-10-07T11:54:04.025Z,17.23
2022-10-07T11:55:04.009Z,17.30
2022-10-07T11:56:03.983Z,17.18
2022-10-07T11:57:03.960Z,17.15
2022-10-07T11:58:03.942Z,17.01
2022-10-07T11:59:03.924Z,17.08
2022-10-07T12:00:03.893Z,16.91
2022-10-07T12:01:03.872Z,16.91
2022-10-07T12:02:03.922Z,16.85
2022-10-07T12:03:03.857Z,16.83
2022-10-07T12:04:03.813Z,16.81
2022-10-07T12:05:03.787Z,16.73
2022-10-07T12:06:03.769Z,16.86
2022-10-07T12:07:03.749Z,16.79
2022-10-07T12:08:03.742Z,16.91
2022-10-07T12:09:03.702Z,16.76
2022-10-07T12:10:03.678Z,16.91
2022-10-07T12:11:03.664Z,16.96
2022-10-07T12:12:03.637Z,17.03
2022-10-07T12:13:03.612Z,17.14
2022-10-07T12:14:03.595Z,17.21
2022-10-07T12:15:03.574Z,17.40
2022-10-07T12:16:03.591Z,17.33
2022-10-07T12:17:03.544Z,17.28
2022-10-07T12:18:03.507Z,17.38
2022-10-07T12:19:03.488Z,17.41
2022-10-07T12:20:03.462Z,17.37
2022-10-07T12:21:03.447Z,17.30
2022-10-07T12:22:03.420Z,17.34
2022-10-07T12:23:03.563Z,17.34
2022-10-07T12:24:03.526Z,17.33
2022-10-07T12:25:06.764Z,17.36
2022-10-07T12:26:03.347Z,17.34
2022-10-07T12:27:03.313Z,17.36
2022-10-07T12:28:03.335Z,17.36
2022-10-07T12:29:03.274Z,17.49
2022-10-07T12:30:03.254Z,17.43
2022-10-07T12:31:03.227Z,17.40
2022-10-07T12:32:03.342Z,17.46
2022-10-07T12:33:03.184Z,17.52
2022-10-07T12:34:03.167Z,17.62
2022-10-07T12:35:03.143Z,17.62
2022-10-07T12:36:03.118Z,17.64
2022-10-07T12:37:03.110Z,17.66
2022-10-07T12:38:03.077Z,17.62
2022-10-07T12:39:03.056Z,17.66
2022-10-07T12:40:03.108Z,17.66
2022-10-07T12:41:03.016Z,17.72
2022-10-07T12:42:02.991Z,17.66
2022-10-07T12:43:02.974Z,17.62
2022-10-07T12:44:02.955Z,17.74
2022-10-07T12:45:02.936Z,17.77
2022-10-07T12:46:02.987Z,17.71
2022-10-07T12:47:02.887Z,17.70
2022-10-07T12:48:02.862Z,17.72
2022-10-07T12:49:02.846Z,17.74
2022-10-07T12:50:02.909Z,17.74
2022-10-07T12:51:02.800Z,17.77
2022-10-07T12:52:02.780Z,17.71
2022-10-07T12:53:02.760Z,17.66
2022-10-07T12:54:02.736Z,17.77
2022-10-07T12:55:02.716Z,17.71
2022-10-07T12:56:02.721Z,17.82
2022-10-07T12:57:02.671Z,17.81
2022-10-07T12:58:02.654Z,17.86
2022-10-07T12:59:02.631Z,17.81
2022-10-07T13:00:02.699Z,17.78
2022-10-07T13:01:02.665Z,17.84
2022-10-07T13:02:02.730Z,17.82
2022-10-07T13:03:02.546Z,17.82
2022-10-07T13:04:02.525Z,17.90
2022-10-07T13:05:02.516Z,17.90